Time;durP1;ratioP1;P1;durP2;ratioP2;P2;SDS_P1;SDS_P2;PMS_P1;PMS_P2;Temp;Humidity;BMP_temperature;BMP_pressure;BME280_temperature;BME280_humidity;BME280_pressure;Samples;Min_cycle;Max_cycle;Signal;HPM_P1;HPM_P2
2021/07/01 00:01:58;;;;;;;1.42;1.42;;;15.30;99.90;;;;;;5013156;28;20052;-88
2021/07/01 00:04:25;;;;;;;1.67;1.55;;;15.30;99.90;;;;;;5014198;28;20056;-89
2021/07/01 00:06:52;;;;;;;1.48;1.40;;;15.30;99.90;;;;;;5016117;28;20137;-89
2021/07/01 00:09:21;;;;;;;1.55;1.45;;;15.30;99.90;;;;;;5015322;28;20064;-89
2021/07/01 00:11:50;;;;;;;2.67;1.40;;;15.30;99.90;;;;;;5014215;28;20064;-89
2021/07/01 00:14:18;;;;;;;2.35;1.48;;;15.30;99.90;;;;;;5022084;28;20057;-89
2021/07/01 00:16:49;;;;;;;1.58;1.45;;;15.30;99.90;;;;;;5021910;28;20066;-88
2021/07/01 00:19:16;;;;;;;2.17;1.48;;;15.30;99.90;;;;;;5012732;28;20520;-89
2021/07/01 00:21:44;;;;;;;1.67;1.58;;;15.30;99.90;;;;;;5012991;28;20057;-89
2021/07/01 00:24:11;;;;;;;2.58;1.20;;;15.30;99.90;;;;;;5012945;28;20060;-90
2021/07/01 00:26:38;;;;;;;6.53;1.48;;;15.40;99.90;;;;;;5012778;28;20058;-89
2021/07/01 00:29:05;;;;;;;1.50;1.45;;;15.40;99.90;;;;;;5012797;28;20140;-88
2021/07/01 00:31:31;;;;;;;1.88;1.77;;;15.40;99.90;;;;;;5012687;28;20054;-89
2021/07/01 00:33:59;;;;;;;1.30;1.20;;;15.30;99.90;;;;;;5012688;28;20081;-89
2021/07/01 00:36:26;;;;;;;1.60;1.50;;;15.40;99.90;;;;;;5012654;28;20140;-89
2021/07/01 00:38:52;;;;;;;1.67;1.38;;;15.40;99.90;;;;;;5012674;28;20054;-89
2021/07/01 00:41:19;;;;;;;1.33;1.23;;;15.40;99.90;;;;;;5012713;28;20056;-89
2021/07/01 00:43:46;;;;;;;1.35;1.30;;;15.30;99.90;;;;;;5012455;28;20046;-89
2021/07/01 00:46:14;;;;;;;1.63;1.30;;;15.40;99.90;;;;;;5012752;28;20054;-89
2021/07/01 00:48:41;;;;;;;1.52;1.30;;;15.30;99.90;;;;;;5012675;28;20076;-89
2021/07/01 00:51:07;;;;;;;1.35;1.30;;;15.30;99.90;;;;;;5012585;28;20054;-90
2021/07/01 00:53:34;;;;;;;1.17;1.15;;;15.30;99.90;;;;;;5012373;28;20042;-90
2021/07/01 00:56:03;;;;;;;1.60;1.50;;;15.30;99.90;;;;;;5012537;28;20053;-89
2021/07/01 00:58:30;;;;;;;2.60;1.38;;;15.20;99.90;;;;;;5012664;28;20129;-89
2021/07/01 01:01:02;;;;;;;1.60;1.50;;;15.10;99.90;;;;;;5012567;28;20057;-90
2021/07/01 01:03:30;;;;;;;3.70;1.50;;;15.20;99.90;;;;;;5014692;28;20060;-90
2021/07/01 01:05:57;;;;;;;2.60;1.60;;;15.00;99.90;;;;;;5016460;28;20054;-89
2021/07/01 01:08:24;;;;;;;3.35;1.50;;;15.10;99.90;;;;;;5016494;28;20141;-89
2021/07/01 01:10:52;;;;;;;2.65;1.55;;;15.20;99.90;;;;;;5016412;28;20141;-89
2021/07/01 01:13:26;;;;;;;1.63;1.52;;;15.20;99.90;;;;;;5016568;28;20137;-90
2021/07/01 01:16:01;;;;;;;4.50;1.63;;;15.20;99.90;;;;;;5016580;28;20074;-89
2021/07/01 01:18:30;;;;;;;3.03;1.75;;;15.20;99.90;;;;;;5016243;28;20057;-90
2021/07/01 01:20:58;;;;;;;1.60;1.50;;;15.20;99.90;;;;;;5016364;28;20486;-90
2021/07/01 01:23:27;;;;;;;1.50;1.50;;;15.30;99.90;;;;;;5016349;28;20471;-90
2021/07/01 01:25:58;;;;;;;3.00;1.60;;;15.10;99.90;;;;;;5016263;28;20508;-89
2021/07/01 01:28:25;;;;;;;1.52;1.42;;;15.20;99.90;;;;;;5016375;28;20050;-89
2021/07/01 01:30:52;;;;;;;1.88;1.52;;;15.20;99.90;;;;;;5016186;28;20053;-89
2021/07/01 01:33:19;;;;;;;2.38;1.63;;;15.30;99.90;;;;;;5020552;28;20046;-90
2021/07/01 01:35:46;;;;;;;1.42;1.42;;;15.30;99.90;;;;;;5027592;28;20536;-89
2021/07/01 01:38:15;;;;;;;1.65;1.38;;;15.30;99.90;;;;;;5016123;28;20406;-89
2021/07/01 01:40:44;;;;;;;1.50;1.27;;;15.30;99.90;;;;;;5016051;28;20064;-89
2021/07/01 01:43:14;;;;;;;1.55;1.45;;;15.20;99.90;;;;;;5016137;28;20137;-89
2021/07/01 01:45:42;;;;;;;6.28;2.05;;;15.20;99.90;;;;;;5015803;28;20129;-90
2021/07/01 01:48:09;;;;;;;2.08;1.50;;;15.20;99.90;;;;;;5015685;28;20410;-90
2021/07/01 01:50:36;;;;;;;1.40;1.30;;;15.20;99.90;;;;;;5015866;28;20129;-89
2021/07/01 01:53:04;;;;;;;1.50;1.40;;;15.20;99.90;;;;;;5015743;28;20064;-89
2021/07/01 01:55:30;;;;;;;1.27;1.27;;;15.20;99.90;;;;;;5015295;28;20065;-90
2021/07/01 01:57:58;;;;;;;1.58;1.48;;;15.10;99.90;;;;;;5015579;28;20046;-90
2021/07/01 02:00:26;;;;;;;8.10;1.20;;;15.10;99.90;;;;;;5015493;28;20050;-89
2021/07/01 02:02:53;;;;;;;1.33;1.30;;;15.10;99.90;;;;;;5015112;28;20505;-89
2021/07/01 02:05:20;;;;;;;1.20;1.20;;;15.10;99.90;;;;;;5015356;28;20516;-89
2021/07/01 02:07:48;;;;;;;3.22;1.30;;;15.10;99.90;;;;;;5015341;28;20058;-89
2021/07/01 02:10:20;;;;;;;1.30;1.30;;;15.10;99.90;;;;;;5015418;28;20491;-89
2021/07/01 02:12:48;;;;;;;1.23;1.23;;;15.10;99.90;;;;;;5015160;28;20054;-89
2021/07/01 02:15:18;;;;;;;1.00;1.00;;;15.10;99.90;;;;;;5014128;28;20140;-89
2021/07/01 02:17:45;;;;;;;1.13;0.95;;;15.10;99.90;;;;;;5015121;28;20483;-89
2021/07/01 02:20:15;;;;;;;1.15;1.15;;;15.10;99.90;;;;;;5014760;28;20062;-89
2021/07/01 02:22:43;;;;;;;1.42;1.40;;;15.10;99.90;;;;;;5015142;28;20046;-90
2021/07/01 02:25:10;;;;;;;3.03;1.30;;;15.20;99.90;;;;;;5014787;28;20056;-88
2021/07/01 02:27:38;;;;;;;1.17;1.00;;;15.20;99.90;;;;;;5015988;28;20057;-90
2021/07/01 02:30:11;;;;;;;1.10;0.90;;;15.30;99.90;;;;;;5020155;28;20486;-89
2021/07/01 02:32:38;;;;;;;0.90;0.90;;;15.30;99.90;;;;;;5022658;28;20407;-89
2021/07/01 02:35:07;;;;;;;0.90;0.90;;;15.40;99.90;;;;;;5015101;28;20509;-89
2021/07/01 02:37:36;;;;;;;2.60;1.10;;;15.40;99.90;;;;;;5014663;28;20113;-89
2021/07/01 02:40:06;;;;;;;4.10;1.13;;;15.40;99.90;;;;;;5014721;28;20054;-89
2021/07/01 02:42:33;;;;;;;1.13;0.82;;;15.40;99.90;;;;;;5014619;28;20054;-89
2021/07/01 02:44:59;;;;;;;0.90;0.90;;;15.40;99.90;;;;;;5014523;28;20486;-89
2021/07/01 02:47:26;;;;;;;2.28;0.98;;;15.40;99.90;;;;;;5014331;28;20085;-90
2021/07/01 02:49:53;;;;;;;1.13;0.90;;;15.40;99.90;;;;;;5014452;28;20109;-90
2021/07/01 02:52:20;;;;;;;1.25;1.15;;;15.40;99.90;;;;;;5016425;28;20050;-89
2021/07/01 02:54:47;;;;;;;1.17;1.17;;;15.40;99.90;;;;;;5019443;28;20049;-89
2021/07/01 02:57:13;;;;;;;1.20;1.10;;;15.40;99.90;;;;;;5014812;28;20050;-89
2021/07/01 02:59:40;;;;;;;2.78;1.00;;;15.40;99.90;;;;;;5014195;28;20136;-90
2021/07/01 03:02:07;;;;;;;1.58;0.95;;;15.40;99.90;;;;;;5014195;28;20121;-89
2021/07/01 03:04:33;;;;;;;0.90;0.90;;;15.40;99.90;;;;;;5015185;28;20486;-90
2021/07/01 03:07:00;;;;;;;0.98;0.98;;;15.30;99.90;;;;;;5013758;28;20053;-89
2021/07/01 03:09:27;;;;;;;1.95;1.02;;;15.40;99.90;;;;;;5013883;28;20061;-89
2021/07/01 03:11:53;;;;;;;1.70;1.00;;;15.40;99.90;;;;;;5014042;28;20136;-89
2021/07/01 03:14:20;;;;;;;1.20;1.10;;;15.40;99.90;;;;;;5013881;28;20065;-89
2021/07/01 03:16:47;;;;;;;2.60;1.10;;;15.30;99.90;;;;;;5013694;28;20050;-90
2021/07/01 03:19:14;;;;;;;1.10;1.10;;;15.40;99.90;;;;;;5013591;28;20050;-90
2021/07/01 03:21:41;;;;;;;1.85;0.93;;;15.30;99.90;;;;;;5013719;28;20052;-89
2021/07/01 03:24:08;;;;;;;1.88;1.77;;;15.40;99.90;;;;;;5013984;28;20076;-90
2021/07/01 03:26:34;;;;;;;4.82;1.40;;;15.40;99.90;;;;;;5012776;28;20062;-90
2021/07/01 03:29:01;;;;;;;1.17;1.10;;;15.40;99.90;;;;;;5013749;28;20138;-90
2021/07/01 03:31:28;;;;;;;1.15;1.10;;;15.40;99.90;;;;;;5013594;28;20054;-90
2021/07/01 03:33:54;;;;;;;0.90;0.90;;;15.50;99.90;;;;;;5013713;28;20061;-90
2021/07/01 03:36:21;;;;;;;1.10;1.10;;;15.50;99.90;;;;;;5013084;28;20137;-89
2021/07/01 03:38:48;;;;;;;1.33;1.20;;;15.50;99.90;;;;;;5013664;28;20049;-89
2021/07/01 03:41:14;;;;;;;2.85;1.05;;;15.60;99.90;;;;;;5013569;28;20068;-89
2021/07/01 03:43:45;;;;;;;1.30;1.20;;;15.60;99.90;;;;;;5013415;28;20050;-88
2021/07/01 03:46:14;;;;;;;2.40;1.48;;;15.70;99.90;;;;;;5013472;28;20517;-90
2021/07/01 03:48:41;;;;;;;1.75;1.65;;;15.70;99.90;;;;;;5013260;28;20042;-89
2021/07/01 03:51:09;;;;;;;6.57;1.42;;;15.70;99.90;;;;;;5013328;28;20487;-88
2021/07/01 03:53:35;;;;;;;1.38;1.38;;;15.70;99.90;;;;;;5013208;28;20056;-89
2021/07/01 03:56:02;;;;;;;2.55;1.70;;;15.70;99.90;;;;;;5012865;28;20053;-90
2021/07/01 03:58:29;;;;;;;2.25;1.30;;;15.70;99.90;;;;;;5013335;28;20562;-88
2021/07/01 04:00:56;;;;;;;2.08;1.92;;;15.70;99.90;;;;;;5013137;28;20049;-90
2021/07/01 04:03:22;;;;;;;1.40;1.40;;;15.80;99.90;;;;;;5012894;28;20148;-89
2021/07/01 04:05:49;;;;;;;1.85;1.75;;;15.80;99.90;;;;;;5012986;28;20060;-90
2021/07/01 04:08:17;;;;;;;2.13;1.40;;;15.80;99.90;;;;;;5013142;28;20074;-89
2021/07/01 04:10:45;;;;;;;3.22;1.38;;;15.90;99.90;;;;;;5012824;28;20056;-89
2021/07/01 04:13:12;;;;;;;1.35;1.35;;;15.90;99.90;;;;;;5016762;28;20052;-90
2021/07/01 04:15:39;;;;;;;1.88;1.13;;;15.90;99.90;;;;;;5013457;28;20320;-90
2021/07/01 04:18:24;;;;;;;1.23;1.15;;;15.90;99.90;;;;;;5014779;28;20136;-89
2021/07/01 04:20:51;;;;;;;1.20;1.20;;;16.00;99.90;;;;;;5016305;28;20481;-90
2021/07/01 04:23:18;;;;;;;1.13;1.10;;;15.90;99.90;;;;;;5015868;28;20523;-90
2021/07/01 04:25:50;;;;;;;1.75;1.50;;;15.90;99.90;;;;;;5016185;28;20069;-90
2021/07/01 04:28:17;;;;;;;2.60;1.30;;;16.00;99.90;;;;;;5016162;28;20128;-89
2021/07/01 04:30:43;;;;;;;2.05;1.35;;;16.00;99.90;;;;;;5016014;28;20132;-89
2021/07/01 04:33:10;;;;;;;1.65;1.20;;;16.10;99.90;;;;;;5016040;28;20048;-90
2021/07/01 04:35:37;;;;;;;1.80;1.40;;;16.10;99.90;;;;;;5015727;28;20599;-90
2021/07/01 04:38:04;;;;;;;2.10;1.90;;;16.10;99.90;;;;;;5015753;28;20052;-90
2021/07/01 04:40:30;;;;;;;4.00;2.22;;;16.10;99.90;;;;;;5015897;28;20132;-89
2021/07/01 04:42:57;;;;;;;3.08;2.42;;;16.10;99.90;;;;;;5015743;28;20061;-90
2021/07/01 04:45:24;;;;;;;2.08;1.98;;;16.20;99.90;;;;;;5015605;28;20045;-90
2021/07/01 04:47:51;;;;;;;2.90;2.70;;;16.20;99.90;;;;;;5016008;28;20073;-90
2021/07/01 04:50:18;;;;;;;3.20;2.95;;;16.20;99.90;;;;;;5016047;28;20061;-89
2021/07/01 04:52:44;;;;;;;4.65;2.60;;;16.30;99.90;;;;;;5016400;28;20057;-89
2021/07/01 04:55:11;;;;;;;2.60;2.40;;;16.30;99.90;;;;;;5016679;28;20053;-90
2021/07/01 04:57:38;;;;;;;2.30;2.20;;;16.30;99.90;;;;;;5015743;28;20064;-90
2021/07/01 05:00:05;;;;;;;4.97;3.40;;;16.40;99.90;;;;;;5015886;28;20079;-89
2021/07/01 05:02:32;;;;;;;3.95;3.60;;;16.40;99.90;;;;;;5015613;28;20046;-88
2021/07/01 05:04:59;;;;;;;7.32;3.75;;;16.50;99.90;;;;;;5015411;28;20087;-89
2021/07/01 05:07:25;;;;;;;6.20;3.50;;;16.50;99.90;;;;;;5015307;28;20600;-89
2021/07/01 05:09:52;;;;;;;4.03;3.72;;;16.60;99.90;;;;;;5015469;28;20136;-89
2021/07/01 05:12:19;;;;;;;10.02;4.47;;;16.60;99.90;;;;;;5015704;28;20053;-89
2021/07/01 05:14:45;;;;;;;4.60;3.58;;;16.70;99.90;;;;;;5015678;28;20592;-89
2021/07/01 05:17:12;;;;;;;4.28;3.90;;;16.70;99.90;;;;;;5015677;28;20140;-88
2021/07/01 05:19:39;;;;;;;3.90;3.60;;;16.80;99.90;;;;;;5015227;28;20050;-89
2021/07/01 05:22:06;;;;;;;3.42;3.20;;;16.80;99.90;;;;;;5015584;28;20061;-89
2021/07/01 05:24:33;;;;;;;3.60;3.38;;;16.80;99.90;;;;;;5015456;28;20129;-88
2021/07/01 05:27:00;;;;;;;3.42;3.20;;;16.80;99.90;;;;;;5015696;28;20055;-89
2021/07/01 05:29:26;;;;;;;3.78;3.58;;;16.90;99.90;;;;;;5015465;28;20059;-88
2021/07/01 05:32:13;;;;;;;3.50;3.30;;;16.90;99.90;;;;;;5024527;28;20398;-89
2021/07/01 05:34:41;;;;;;;3.67;3.38;;;16.90;99.90;;;;;;5037830;28;20049;-87
2021/07/01 05:37:07;;;;;;;5.90;3.58;;;16.80;99.90;;;;;;5052484;28;20063;-89
2021/07/01 05:39:34;;;;;;;3.67;3.38;;;16.80;99.90;;;;;;5035606;28;20041;-88
2021/07/01 05:42:01;;;;;;;3.28;3.00;;;16.90;99.90;;;;;;5035348;28;20136;-89
2021/07/01 05:44:27;;;;;;;3.58;3.30;;;16.90;99.90;;;;;;5035206;28;20049;-89
2021/07/01 05:46:54;;;;;;;4.95;3.35;;;17.00;99.90;;;;;;5035344;28;20132;-89
2021/07/01 05:49:21;;;;;;;3.40;3.30;;;17.10;99.90;;;;;;5027711;28;20139;-89
2021/07/01 05:51:50;;;;;;;3.65;3.30;;;17.20;99.90;;;;;;5027192;28;20067;-89
2021/07/01 05:54:26;;;;;;;3.60;3.40;;;17.20;99.90;;;;;;5027545;28;20049;-89
2021/07/01 05:56:53;;;;;;;3.97;3.25;;;17.20;99.90;;;;;;5027640;28;20064;-89
2021/07/01 05:59:20;;;;;;;3.13;2.92;;;17.30;99.90;;;;;;5030035;28;20131;-88
2021/07/01 06:01:47;;;;;;;3.13;2.92;;;17.40;99.90;;;;;;5033178;28;20053;-88
2021/07/01 06:04:14;;;;;;;2.50;2.40;;;17.40;99.90;;;;;;5028967;28;20047;-88
2021/07/01 06:06:49;;;;;;;2.72;2.45;;;17.40;99.90;;;;;;5027893;28;20401;-88
2021/07/01 06:09:24;;;;;;;6.05;2.65;;;17.50;99.90;;;;;;5030107;28;20051;-88
2021/07/01 06:11:56;;;;;;;7.03;2.78;;;17.50;99.90;;;;;;5038375;28;20041;-88
2021/07/01 06:14:24;;;;;;;4.18;2.35;;;17.60;99.90;;;;;;5038349;28;20059;-88
2021/07/01 06:16:53;;;;;;;2.97;2.10;;;17.80;99.90;;;;;;5037908;28;20049;-89
2021/07/01 06:19:20;;;;;;;1.95;1.75;;;17.90;99.90;;;;;;5037277;28;20069;-87
2021/07/01 06:21:50;;;;;;;2.78;1.88;;;17.90;99.90;;;;;;5037961;28;20148;-87
2021/07/01 06:24:17;;;;;;;3.10;1.70;;;18.00;99.90;;;;;;5038011;28;20045;-88
2021/07/01 06:26:46;;;;;;;1.88;1.77;;;18.20;99.90;;;;;;5037892;28;20132;-88
2021/07/01 06:29:14;;;;;;;2.35;1.35;;;18.30;99.90;;;;;;5037494;28;20049;-87
2021/07/01 06:31:42;;;;;;;1.50;1.40;;;18.40;99.90;;;;;;5037607;28;20482;-88
2021/07/01 06:34:09;;;;;;;2.05;1.85;;;18.30;99.90;;;;;;5037988;28;20045;-87
2021/07/01 06:36:41;;;;;;;1.20;1.10;;;18.50;99.90;;;;;;5037539;28;20053;-89
2021/07/01 06:39:08;;;;;;;3.70;1.83;;;18.70;99.90;;;;;;5055076;28;20072;-87
2021/07/01 06:41:37;;;;;;;1.05;1.00;;;18.80;99.90;;;;;;5026861;28;20057;-86
2021/07/01 06:44:07;;;;;;;1.55;1.42;;;18.90;99.90;;;;;;5026319;28;20045;-87
2021/07/01 06:46:34;;;;;;;1.10;1.10;;;19.00;99.90;;;;;;5031463;28;20408;-87
2021/07/01 06:49:02;;;;;;;1.65;1.17;;;19.10;99.90;;;;;;5037370;28;20537;-89
2021/07/01 06:51:40;;;;;;;1.40;1.30;;;19.20;99.90;;;;;;5039108;28;20057;-88
2021/07/01 06:54:13;;;;;;;1.88;1.20;;;19.40;99.90;;;;;;5041922;28;20168;-88
2021/07/01 06:56:41;;;;;;;1.13;1.03;;;19.80;99.90;;;;;;5037327;28;20131;-88
2021/07/01 06:59:11;;;;;;;1.00;1.00;;;20.00;99.90;;;;;;5036982;28;20323;-89
2021/07/01 07:01:39;;;;;;;1.17;1.17;;;19.90;99.90;;;;;;5036889;28;20072;-88
2021/07/01 07:04:18;;;;;;;1.98;1.20;;;19.80;99.90;;;;;;5038568;28;20405;-87
2021/07/01 07:06:46;;;;;;;1.20;1.20;;;19.80;99.90;;;;;;5037310;28;20456;-88
2021/07/01 07:09:15;;;;;;;1.35;1.25;;;19.80;99.90;;;;;;5037120;28;20049;-89
2021/07/01 07:11:43;;;;;;;1.40;1.30;;;19.80;99.90;;;;;;5038956;28;20075;-89
2021/07/01 07:14:11;;;;;;;2.72;1.20;;;19.80;99.90;;;;;;5039114;28;20045;-89
2021/07/01 07:16:40;;;;;;;1.00;1.00;;;19.90;99.90;;;;;;5038954;28;20056;-89
2021/07/01 07:19:09;;;;;;;1.40;1.25;;;19.80;99.90;;;;;;5037157;28;20057;-86
2021/07/01 07:21:42;;;;;;;2.40;1.02;;;19.90;99.90;;;;;;5036777;28;20061;-88
2021/07/01 07:24:09;;;;;;;1.10;1.10;;;19.90;99.90;;;;;;5036961;28;20049;-86
2021/07/01 07:26:37;;;;;;;1.55;0.90;;;19.80;99.90;;;;;;5036641;28;20059;-86
2021/07/01 07:29:27;;;;;;;1.00;1.00;;;19.90;99.90;;;;;;5039459;28;20041;-88
2021/07/01 07:31:58;;;;;;;1.40;1.30;;;19.80;99.90;;;;;;5036775;28;20053;-88
2021/07/01 07:34:26;;;;;;;1.00;1.00;;;19.70;99.90;;;;;;5036842;28;20132;-89
2021/07/01 07:36:52;;;;;;;1.00;1.00;;;19.70;99.90;;;;;;5036263;28;20136;-87
2021/07/01 07:39:23;;;;;;;1.00;1.00;;;20.00;99.90;;;;;;5036481;28;20444;-86
2021/07/01 07:41:50;;;;;;;2.33;1.10;;;20.40;99.90;;;;;;5036335;28;20048;-87
2021/07/01 07:44:18;;;;;;;0.98;0.98;;;20.70;99.90;;;;;;5036475;28;20072;-87
2021/07/01 07:46:47;;;;;;;1.27;1.10;;;21.40;99.90;;;;;;5036322;28;20515;-88
2021/07/01 07:49:14;;;;;;;1.13;1.13;;;22.10;99.90;;;;;;5036119;28;20107;-87
2021/07/01 07:51:42;;;;;;;2.00;0.90;;;22.80;99.90;;;;;;5036453;28;20555;-88
2021/07/01 07:54:10;;;;;;;1.08;1.00;;;23.10;99.90;;;;;;5036519;28;20140;-86
2021/07/01 07:56:38;;;;;;;8.65;1.80;;;23.00;99.90;;;;;;5035854;28;20049;-89
2021/07/01 07:59:07;;;;;;;3.45;0.80;;;22.80;99.90;;;;;;5036392;28;20053;-88
2021/07/01 08:01:34;;;;;;;1.02;1.02;;;22.70;99.90;;;;;;5036453;28;20059;-88
2021/07/01 08:04:06;;;;;;;0.80;0.80;;;22.60;99.90;;;;;;5036260;28;20052;-87
2021/07/01 08:06:34;;;;;;;1.85;0.80;;;22.40;99.90;;;;;;5035980;28;20482;-86
2021/07/01 08:09:05;;;;;;;1.60;1.60;;;21.70;99.90;;;;;;5034476;28;20049;-87
2021/07/01 08:11:35;;;;;;;1.00;1.00;;;21.20;99.90;;;;;;5041693;28;20131;-86
2021/07/01 08:14:03;;;;;;;0.85;0.85;;;20.60;99.90;;;;;;5056159;28;20123;-87
2021/07/01 08:16:30;;;;;;;1.77;1.20;;;20.30;99.90;;;;;;5035763;28;20436;-87
2021/07/01 08:18:59;;;;;;;1.85;0.90;;;20.60;99.90;;;;;;5053240;28;20053;-88
2021/07/01 08:21:28;;;;;;;0.68;0.68;;;22.00;99.90;;;;;;5036138;28;20060;-87
2021/07/01 08:23:55;;;;;;;2.10;0.52;;;23.10;99.90;;;;;;5035828;28;20049;-87
2021/07/01 08:26:23;;;;;;;1.02;0.75;;;23.90;99.90;;;;;;5035888;28;20044;-88
2021/07/01 08:28:55;;;;;;;0.63;0.63;;;23.70;99.90;;;;;;5053159;28;20109;-87
2021/07/01 08:31:22;;;;;;;0.65;0.63;;;23.60;99.90;;;;;;5053053;28;20063;-88
2021/07/01 08:33:51;;;;;;;0.60;0.60;;;22.70;99.90;;;;;;5033763;28;20051;-87
2021/07/01 08:36:21;;;;;;;4.32;0.68;;;22.30;99.90;;;;;;5052206;28;20049;-87
2021/07/01 08:38:50;;;;;;;0.63;0.63;;;21.70;99.90;;;;;;5035573;28;20503;-87
2021/07/01 08:41:23;;;;;;;0.70;0.70;;;21.10;99.90;;;;;;5035294;28;20405;-88
2021/07/01 08:43:52;;;;;;;1.13;0.70;;;20.80;99.90;;;;;;5035248;28;20060;-88
2021/07/01 08:46:28;;;;;;;0.77;0.77;;;20.60;99.90;;;;;;5052973;28;20063;-87
2021/07/01 08:49:04;;;;;;;3.85;0.90;;;20.60;99.90;;;;;;5035618;28;20052;-85
2021/07/01 08:51:37;;;;;;;0.60;0.60;;;20.30;99.90;;;;;;5052872;28;20060;-85
2021/07/01 08:54:32;;;;;;;0.80;0.80;;;20.00;99.90;;;;;;5052920;28;20127;-87
2021/07/01 08:57:00;;;;;;;0.70;0.70;;;19.90;99.90;;;;;;5035446;28;20085;-88
2021/07/01 08:59:38;;;;;;;1.98;0.70;;;19.70;99.90;;;;;;5052862;28;20079;-85
2021/07/01 09:02:09;;;;;;;11.05;1.35;;;19.50;99.90;;;;;;5035529;28;20056;-88
2021/07/01 09:04:54;;;;;;;0.70;0.60;;;19.40;99.90;;;;;;5035301;28;20040;-88
2021/07/01 09:07:22;;;;;;;0.77;0.60;;;19.30;99.90;;;;;;5031282;28;20053;-90
2021/07/01 09:09:59;;;;;;;0.75;0.75;;;19.40;99.90;;;;;;5035519;28;20060;-87
2021/07/01 09:12:28;;;;;;;0.73;0.73;;;19.30;99.90;;;;;;5035341;28;20055;-88
2021/07/01 09:15:08;;;;;;;3.03;0.75;;;19.40;99.90;;;;;;5035192;28;20404;-89
2021/07/01 09:17:37;;;;;;;1.63;0.70;;;19.70;99.90;;;;;;5035137;28;20390;-89
2021/07/01 09:20:11;;;;;;;0.70;0.70;;;20.20;99.90;;;;;;5035162;28;20063;-88
2021/07/01 09:22:38;;;;;;;0.70;0.70;;;20.40;99.90;;;;;;5035012;28;20045;-87
2021/07/01 09:25:05;;;;;;;1.75;0.50;;;20.60;99.90;;;;;;5038325;28;20087;-87
2021/07/01 09:27:32;;;;;;;0.70;0.70;;;20.90;99.90;;;;;;5038775;28;20049;-87
2021/07/01 09:30:01;;;;;;;0.70;0.70;;;21.70;99.90;;;;;;5040322;28;20049;-87
2021/07/01 09:32:30;;;;;;;0.50;0.50;;;21.90;99.90;;;;;;5044043;28;20059;-87
2021/07/01 09:34:57;;;;;;;1.83;0.50;;;21.60;99.90;;;;;;5039858;28;20145;-87
2021/07/01 09:37:39;;;;;;;2.28;0.75;;;21.30;99.90;;;;;;5038579;28;20056;-88
2021/07/01 09:40:09;;;;;;;0.70;0.70;;;20.80;99.90;;;;;;5056989;28;20073;-88
2021/07/01 09:42:36;;;;;;;0.68;0.68;;;20.20;99.90;;;;;;5039177;28;20144;-87
2021/07/01 09:45:09;;;;;;;0.90;0.90;;;19.90;99.90;;;;;;5038927;28;20048;-87
2021/07/01 09:47:39;;;;;;;2.03;0.80;;;19.80;99.90;;;;;;5038348;28;20059;-86
2021/07/01 09:50:08;;;;;;;0.80;0.80;;;19.70;99.90;;;;;;5038470;28;20481;-85
2021/07/01 09:52:40;;;;;;;1.05;0.70;;;19.50;99.90;;;;;;5038661;28;20059;-87
2021/07/01 09:55:09;;;;;;;0.57;0.57;;;19.30;99.90;;;;;;5038429;28;20045;-87
2021/07/01 09:57:45;;;;;;;1.08;0.88;;;18.90;99.90;;;;;;5055651;28;20111;-88
2021/07/01 10:00:14;;;;;;;2.25;1.00;;;18.40;99.90;;;;;;5038709;28;20051;-88
2021/07/01 10:02:41;;;;;;;0.90;0.90;;;18.10;99.90;;;;;;5055624;28;20059;-87
2021/07/01 10:05:30;;;;;;;1.00;1.00;;;17.90;99.90;;;;;;5038242;28;20080;-85
2021/07/01 10:07:56;;;;;;;0.88;0.88;;;17.80;99.90;;;;;;5055335;28;20135;-86
2021/07/01 10:10:23;;;;;;;0.77;0.77;;;17.90;99.90;;;;;;5037939;28;20076;-86
2021/07/01 10:12:53;;;;;;;0.98;0.70;;;18.10;99.90;;;;;;5037916;28;20133;-86
2021/07/01 10:15:29;;;;;;;0.70;0.68;;;18.40;99.90;;;;;;5037798;28;20131;-86
2021/07/01 10:18:06;;;;;;;1.25;0.80;;;18.80;99.90;;;;;;5055119;28;20107;-89
2021/07/01 10:20:54;;;;;;;0.60;0.60;;;19.30;99.90;;;;;;5040663;28;20115;-86
2021/07/01 10:23:27;;;;;;;0.73;0.73;;;20.10;99.90;;;;;;5037889;28;20057;-87
2021/07/01 10:26:23;;;;;;;1.80;0.90;;;20.60;99.90;;;;;;5055209;28;20040;-84
2021/07/01 10:29:00;;;;;;;0.80;0.80;;;20.60;99.90;;;;;;5037789;28;20061;-86
2021/07/01 10:31:55;;;;;;;0.95;0.93;;;20.50;99.90;;;;;;5055152;28;20052;-87
2021/07/01 10:34:24;;;;;;;1.10;1.08;;;20.60;99.90;;;;;;5037735;28;20053;-88
2021/07/01 10:37:15;;;;;;;0.90;0.90;;;20.40;99.90;;;;;;5036824;28;20135;-87
2021/07/01 10:39:42;;;;;;;1.20;1.10;;;20.40;99.90;;;;;;5054670;28;20140;-84
2021/07/01 10:42:09;;;;;;;1.63;1.10;;;20.40;99.90;;;;;;5036412;28;20053;-86
2021/07/01 10:44:36;;;;;;;1.20;1.10;;;20.20;99.90;;;;;;5037104;28;20051;-84
2021/07/01 10:47:21;;;;;;;1.15;1.00;;;20.20;99.90;;;;;;5037533;28;20055;-86
2021/07/01 10:49:48;;;;;;;1.05;0.95;;;20.30;99.90;;;;;;5038175;28;20053;-84
2021/07/01 10:52:19;;;;;;;0.98;0.98;;;20.80;99.90;;;;;;5043826;28;20073;-85
2021/07/01 10:54:56;;;;;;;0.90;0.90;;;21.00;99.90;;;;;;5037539;28;20045;-85
2021/07/01 10:57:36;;;;;;;0.70;0.70;;;21.30;99.90;;;;;;5038843;28;20091;-86
2021/07/01 11:00:37;;;;;;;0.70;0.70;;;21.40;99.90;;;;;;5039855;28;20049;-87
2021/07/01 11:03:26;;;;;;;1.60;1.30;;;21.50;99.90;;;;;;5039684;28;20504;-87
2021/07/01 11:05:53;;;;;;;0.95;0.95;;;20.70;99.90;;;;;;5036628;28;20473;-87
2021/07/01 11:08:30;;;;;;;3.35;0.98;;;20.10;99.90;;;;;;5036746;28;20135;-88
2021/07/01 11:10:58;;;;;;;2.25;1.17;;;19.80;99.90;;;;;;5036070;28;20048;-87
2021/07/01 11:13:53;;;;;;;1.45;1.25;;;19.40;99.90;;;;;;5038591;28;20055;-87
2021/07/01 11:16:20;;;;;;;1.75;1.23;;;19.10;99.90;;;;;;5036717;28;20049;-86
2021/07/01 11:18:47;;;;;;;0.90;0.90;;;18.90;99.90;;;;;;5035477;28;20144;-87
2021/07/01 11:21:19;;;;;;;2.22;1.27;;;18.70;99.90;;;;;;5036326;28;20051;-87
2021/07/01 11:23:50;;;;;;;0.90;0.88;;;18.50;99.90;;;;;;5036047;28;20127;-86
2021/07/01 11:26:28;;;;;;;2.70;1.00;;;18.40;99.90;;;;;;5036013;28;20045;-87
2021/07/01 11:28:57;;;;;;;1.33;1.00;;;18.50;99.90;;;;;;5036097;28;20053;-88
2021/07/01 11:31:36;;;;;;;3.22;1.83;;;18.60;99.90;;;;;;5053515;28;20053;-87
2021/07/01 11:34:04;;;;;;;1.00;1.00;;;18.50;99.90;;;;;;5053173;28;20044;-87
2021/07/01 11:36:31;;;;;;;0.82;0.80;;;18.50;99.90;;;;;;5035656;28;20048;-88
2021/07/01 11:39:10;;;;;;;3.50;0.98;;;18.60;99.90;;;;;;5053155;28;20053;-87
2021/07/01 11:41:40;;;;;;;1.10;1.00;;;18.60;99.90;;;;;;5035832;28;20136;-87
2021/07/01 11:44:10;;;;;;;0.85;0.85;;;18.60;99.90;;;;;;5053497;28;20052;-88
2021/07/01 11:46:38;;;;;;;0.80;0.80;;;18.50;99.90;;;;;;5052249;28;20500;-86
2021/07/01 11:49:06;;;;;;;0.80;0.80;;;18.20;99.90;;;;;;5035261;28;20059;-85
2021/07/01 11:51:34;;;;;;;0.85;0.85;;;18.30;99.90;;;;;;5035815;28;20088;-87
2021/07/01 11:54:02;;;;;;;1.48;0.93;;;18.20;99.90;;;;;;5053186;28;20140;-86
2021/07/01 11:56:29;;;;;;;0.82;0.82;;;18.30;99.90;;;;;;5048439;28;20045;-87
2021/07/01 11:58:56;;;;;;;0.80;0.80;;;18.30;99.90;;;;;;5042591;28;20055;-87
2021/07/01 12:01:23;;;;;;;0.55;0.50;;;18.30;99.90;;;;;;5031649;28;20046;-87
2021/07/01 12:03:52;;;;;;;0.50;0.50;;;18.20;99.90;;;;;;5032019;28;20083;-89
2021/07/01 12:07:09;;;;;;;0.70;0.70;;;18.00;99.90;;;;;;5034378;28;20049;-88
2021/07/01 12:09:41;;;;;;;1.60;0.75;;;17.70;99.90;;;;;;4934119;29;20047;-86
2021/07/01 12:12:14;;;;;;;2.55;0.50;;;17.70;99.90;;;;;;5026741;28;20045;-89
2021/07/01 12:14:44;;;;;;;0.50;0.40;;;18.20;99.90;;;;;;5027787;28;20143;-88
2021/07/01 12:17:11;;;;;;;0.60;0.60;;;18.80;99.90;;;;;;5025491;28;20053;-88
2021/07/01 12:19:47;;;;;;;0.50;0.50;;;19.30;99.90;;;;;;5043109;28;20045;-86
2021/07/01 12:22:43;;;;;;;0.50;0.50;;;19.80;99.90;;;;;;5015312;28;20136;-88
2021/07/01 12:25:12;;;;;;;0.63;0.63;;;19.90;99.90;;;;;;5029226;28;20091;-88
2021/07/01 12:27:39;;;;;;;0.70;0.50;;;19.80;99.90;;;;;;5035084;28;20547;-89
2021/07/01 12:30:07;;;;;;;1.40;0.50;;;20.00;99.90;;;;;;5035113;28;20057;-88
2021/07/01 12:32:34;;;;;;;0.73;0.57;;;20.30;99.90;;;;;;5034329;28;20053;-86
2021/07/01 12:35:40;;;;;;;0.60;0.60;;;20.10;99.90;;;;;;5034901;28;20052;-89
2021/07/01 12:38:11;;;;;;;0.85;0.60;;;20.30;99.90;;;;;;5052231;28;20386;-84
2021/07/01 12:40:56;;;;;;;0.80;0.80;;;20.50;99.90;;;;;;5034620;28;20051;-87
2021/07/01 12:43:47;;;;;;;0.55;0.55;;;20.40;99.90;;;;;;5034425;28;20057;-88
2021/07/01 12:46:46;;;;;;;0.50;0.50;;;20.90;99.90;;;;;;5024930;28;20053;-88
2021/07/01 12:49:21;;;;;;;0.73;0.73;;;21.30;99.90;;;;;;4996553;28;20053;-87
2021/07/01 12:52:10;;;;;;;0.50;0.50;;;21.60;99.90;;;;;;5015601;28;20510;-87
2021/07/01 12:54:37;;;;;;;1.98;0.70;;;21.50;99.90;;;;;;5015072;28;20544;-86
2021/07/01 12:57:09;;;;;;;1.33;0.50;;;20.90;99.90;;;;;;5032664;28;20139;-89
2021/07/01 12:59:56;;;;;;;1.05;0.50;;;20.50;99.90;;;;;;5017318;28;20412;-87
2021/07/01 13:02:29;;;;;;;0.80;0.80;;;19.80;99.90;;;;;;5036452;28;20504;-88
2021/07/01 13:05:10;;;;;;;0.75;0.70;;;19.50;99.90;;;;;;5035526;28;20136;-88